LiveATC.Net - Listen to live air traffic control over the Internet!


ICAO: EPWA  IATA: WAW   Airport: Frederic Chopin Airport
City: Warsaw
Country: Poland   Continent: Europe
EPWA METAR Weather: EPWA 240630Z 27020KT 9999 SCT019 12/08 Q1004 NOSIG
EPWA Flight Activity (FlightAware)
EPWA Webcam:  (Airport Webcams) 

EPWA Approach #1
Feed Status: UP   Listeners: 6
Listen in your browser - HTML5 player (in browser, HTML5)
Click here to listen with your own player (launches your MP3 player)
Archive Access: EPWA Approach #1
FacilityFrequency
Warsaw Approach128.805

EPWA Director
Feed Status: UP   Listeners: 0
Listen in your browser - HTML5 player (in browser, HTML5)
Click here to listen with your own player (launches your MP3 player)
Archive Access: EPWA Director
FacilityFrequency
Warsaw Director129.375

NOTICE

Unauthorized use prohibited. See LiveATC.net Terms of Service


Airport/ARTCC Code
Frequency Search
(e.g., 124.400, 128.75)
Site-wide search
 


Browse Feeds
Top 50 Feeds
HF Oceanic Feeds
Coverage Map
Bad Weather Areas

LiveATC FAQ
Offer LiveATC feed
Contact LiveATC.net
Press Inquiries

LiveATC on iPhone
LiveATC on Android

Windows Phone
Windows 8/10

LiveATC Mobile
(Mobile browser)

ATC Audio Archives
Interesting Recordings

LiveATC Forums


Home Page
About LiveATC.net
Make a Donation
Terms of Use
Privacy Policy

Canadian Air Freqs

AIRMETs/SIGMETs

FAA Airport Status
NAS Status
Arrival Demand


Server Software By:
Icecast.org
Liquidsoap